Time;durP1;ratioP1;P1;durP2;ratioP2;P2;SDS_P1;SDS_P2;PMS_P1;PMS_P2;Temp;Humidity;BMP_temperature;BMP_pressure;BME280_temperature;BME280_humidity;BME280_pressure;Samples;Min_cycle;Max_cycle;Signal;HPM_P1;HPM_P2
2023/08/12 00:02:10;;;;;;;;;;;;;;;20.59;59.51;99975.22;10365313;28;947;-70
2023/08/12 00:07:06;;;;;;;;;;;;;;;20.59;59.57;99980.53;10365157;28;1949;-70
2023/08/12 00:12:02;;;;;;;;;;;;;;;20.60;59.53;99987.56;10366543;28;779;-70
2023/08/12 00:16:58;;;;;;;;;;;;;;;20.59;59.62;99975.22;10354483;28;1350;-70
2023/08/12 00:21:54;;;;;;;;;;;;;;;20.59;59.55;99969.94;10373504;28;783;-70
2023/08/12 00:26:50;;;;;;;;;;;;;;;20.58;59.52;99958.50;10372527;28;898;-70
2023/08/12 00:31:45;;;;;;;;;;;;;;;20.59;59.60;99951.41;10372166;28;1899;-70
2023/08/12 00:36:41;;;;;;;;;;;;;;;20.60;59.61;99946.97;10371882;28;925;-70
2023/08/12 00:41:37;;;;;;;;;;;;;;;20.59;59.60;99927.56;10371431;28;1689;-70
2023/08/12 00:46:33;;;;;;;;;;;;;;;20.59;59.71;99930.22;10371474;28;969;-70
2023/08/12 00:51:29;;;;;;;;;;;;;;;20.59;59.68;99932.84;10371286;28;1906;-70
2023/08/12 00:56:25;;;;;;;;;;;;;;;20.59;59.73;99938.16;10371185;28;1002;-70
2023/08/12 01:01:21;;;;;;;;;;;;;;;20.58;59.49;99944.41;10370969;28;775;-70
2023/08/12 01:06:16;;;;;;;;;;;;;;;20.59;59.54;99938.16;10371354;28;866;-70
2023/08/12 01:11:12;;;;;;;;;;;;;;;20.59;59.76;99922.25;10371257;28;1952;-70
2023/08/12 01:16:08;;;;;;;;;;;;;;;20.58;59.78;99929.38;10370882;28;949;-70
2023/08/12 01:21:05;;;;;;;;;;;;;;;20.58;59.82;99936.47;10369637;28;847;-70
2023/08/12 01:26:00;;;;;;;;;;;;;;;20.59;59.51;99938.16;10369353;28;839;-70
2023/08/12 01:30:57;;;;;;;;;;;;;;;20.58;59.71;99931.16;10369734;28;1953;-70
2023/08/12 01:35:53;;;;;;;;;;;;;;;20.59;59.74;99930.22;10369933;28;792;-70
2023/08/12 01:40:49;;;;;;;;;;;;;;;20.58;59.68;99918.78;10369608;28;1168;-70
2023/08/12 01:45:45;;;;;;;;;;;;;;;20.57;59.64;99917.06;10369795;28;876;-70
2023/08/12 01:50:46;;;;;;;;;;;;;;;20.58;59.73;99916.13;10369571;28;1917;-70
2023/08/12 01:55:42;;;;;;;;;;;;;;;20.58;59.60;99921.41;10369659;28;835;-70
2023/08/12 02:00:38;;;;;;;;;;;;;;;20.59;59.72;99924.91;10368665;28;767;-70
2023/08/12 02:05:34;;;;;;;;;;;;;;;20.59;59.57;99909.03;10368625;28;898;-70
2023/08/12 02:10:30;;;;;;;;;;;;;;;20.58;59.64;99909.97;10368949;28;1894;-70
2023/08/12 02:15:26;;;;;;;;;;;;;;;20.57;59.79;99908.28;10368976;28;814;-70
2023/08/12 02:20:21;;;;;;;;;;;;;;;20.58;59.82;99902.88;10368633;28;822;-70
2023/08/12 02:25:17;;;;;;;;;;;;;;;20.57;59.75;99897.69;10368260;28;870;-70
2023/08/12 02:30:13;;;;;;;;;;;;;;;20.57;59.75;99889.75;10366877;28;1897;-70
2023/08/12 02:35:10;;;;;;;;;;;;;;;20.57;59.75;99884.44;10367568;28;862;-70
2023/08/12 02:40:06;;;;;;;;;;;;;;;20.57;59.66;99881.78;10366713;28;1375;-70
2023/08/12 02:45:02;;;;;;;;;;;;;;;20.58;59.67;99872.91;10367567;28;839;-70
2023/08/12 02:49:57;;;;;;;;;;;;;;;20.56;59.76;99872.97;10367401;28;1977;-70
2023/08/12 02:54:56;;;;;;;;;;;;;;;20.57;59.74;99876.50;10366195;28;1016;-70
2023/08/12 02:59:52;;;;;;;;;;;;;;;20.57;59.75;99880.00;10367258;28;882;-70
2023/08/12 03:04:47;;;;;;;;;;;;;;;20.55;59.69;99873.91;10367379;28;843;-70
2023/08/12 03:09:43;;;;;;;;;;;;;;;20.57;59.82;99873.84;10366361;28;1890;-70
2023/08/12 03:14:39;;;;;;;;;;;;;;;20.56;59.79;99858.88;10366936;28;866;-70
2023/08/12 03:19:35;;;;;;;;;;;;;;;20.56;59.90;99861.53;10366142;28;937;-70
2023/08/12 03:24:31;;;;;;;;;;;;;;;20.55;59.72;99836.00;10366037;28;895;-70
2023/08/12 03:29:27;;;;;;;;;;;;;;;20.56;59.84;99832.41;10366538;28;1890;-70
2023/08/12 03:34:23;;;;;;;;;;;;;;;20.56;59.72;99821.81;10365953;28;779;-70
2023/08/12 03:39:19;;;;;;;;;;;;;;;20.55;59.81;99814.81;10365986;28;1470;-70
2023/08/12 03:44:14;;;;;;;;;;;;;;;20.55;59.82;99814.81;10366409;28;806;-70
2023/08/12 03:49:10;;;;;;;;;;;;;;;20.54;59.91;99807.78;10370618;28;1906;-70
2023/08/12 03:54:06;;;;;;;;;;;;;;;20.54;59.95;99802.47;10373813;28;866;-70
2023/08/12 03:59:02;;;;;;;;;;;;;;;20.55;59.82;99798.91;10374022;28;890;-70
2023/08/12 04:03:58;;;;;;;;;;;;;;;20.54;59.84;99802.47;10373293;28;945;-70
2023/08/12 04:08:54;;;;;;;;;;;;;;;20.54;59.90;99794.53;10373119;28;1894;-70
2023/08/12 04:13:50;;;;;;;;;;;;;;;20.54;59.87;99786.59;10373499;28;882;-70
2023/08/12 04:18:45;;;;;;;;;;;;;;;20.54;59.86;99776.00;10372833;28;969;-70
2023/08/12 04:23:41;;;;;;;;;;;;;;;20.53;59.72;99780.41;10371935;28;894;-70
2023/08/12 04:28:38;;;;;;;;;;;;;;;20.53;59.92;99784.88;10372175;28;1969;-70
2023/08/12 04:33:34;;;;;;;;;;;;;;;20.53;59.90;99768.97;10372143;28;815;-70
2023/08/12 04:38:31;;;;;;;;;;;;;;;20.53;59.89;99759.22;10371647;28;1279;-70
2023/08/12 04:43:27;;;;;;;;;;;;;;;20.52;59.77;99751.41;10372432;28;901;-70
2023/08/12 04:48:23;;;;;;;;;;;;;;;20.52;59.87;99744.28;10372090;28;1910;-70
2023/08/12 04:53:19;;;;;;;;;;;;;;;20.52;59.91;99740.81;10371594;28;782;-70
2023/08/12 04:58:14;;;;;;;;;;;;;;;20.52;59.80;99735.50;10371009;28;858;-70
2023/08/12 05:03:11;;;;;;;;;;;;;;;20.51;59.92;99731.13;10371086;28;762;-70
2023/08/12 05:08:07;;;;;;;;;;;;;;;20.51;59.88;99733.78;10370883;28;1894;-70
2023/08/12 05:13:03;;;;;;;;;;;;;;;20.51;59.89;99736.44;10370684;28;926;-69
2023/08/12 05:17:59;;;;;;;;;;;;;;;20.51;59.86;99728.47;10370402;28;890;-69
2023/08/12 05:22:54;;;;;;;;;;;;;;;20.52;59.88;99725.75;10370165;28;854;-69
2023/08/12 05:27:50;;;;;;;;;;;;;;;20.52;59.79;99717.81;10369885;28;1889;-70
2023/08/12 05:32:46;;;;;;;;;;;;;;;20.52;59.88;99704.56;10370584;28;819;-69
2023/08/12 05:37:42;;;;;;;;;;;;;;;20.52;59.79;99709.88;10369613;28;849;-69
2023/08/12 05:42:38;;;;;;;;;;;;;;;20.53;59.85;99710.72;10369785;28;1156;-69
2023/08/12 05:47:34;;;;;;;;;;;;;;;20.54;60.07;99712.44;10369462;28;2244;-69
2023/08/12 05:52:30;;;;;;;;;;;;;;;20.53;59.98;99727.47;10369646;28;827;-71
2023/08/12 05:57:26;;;;;;;;;;;;;;;20.55;59.95;99727.41;10368238;28;825;-70
2023/08/12 06:02:21;;;;;;;;;;;;;;;20.53;59.96;99727.47;10368631;28;890;-69
2023/08/12 06:07:18;;;;;;;;;;;;;;;20.53;60.13;99724.81;10368492;28;1898;-69
2023/08/12 06:12:14;;;;;;;;;;;;;;;20.54;60.05;99717.75;10368917;28;799;-69
2023/08/12 06:17:10;;;;;;;;;;;;;;;20.54;60.05;99720.41;10368199;28;890;-70
2023/08/12 06:22:05;;;;;;;;;;;;;;;20.54;60.16;99720.41;10368505;28;780;-69
2023/08/12 06:27:01;;;;;;;;;;;;;;;20.54;60.13;99729.22;10367128;28;921;-69
2023/08/12 06:31:57;;;;;;;;;;;;;;;20.54;60.08;99720.41;10367430;28;2019;-70
2023/08/12 06:36:53;;;;;;;;;;;;;;;20.53;60.04;99710.72;10368039;28;894;-70
2023/08/12 06:41:50;;;;;;;;;;;;;;;20.52;60.13;99714.31;10367646;28;1152;-70
2023/08/12 06:46:46;;;;;;;;;;;;;;;20.52;60.34;99714.31;10366397;28;978;-69
2023/08/12 06:51:42;;;;;;;;;;;;;;;20.52;60.09;99714.31;10366183;28;1961;-72
2023/08/12 06:56:38;;;;;;;;;;;;;;;20.56;60.10;99714.06;10367378;28;906;-70
2023/08/12 07:01:34;;;;;;;;;;;;;;;20.55;60.18;99722.97;10367145;28;778;-68
2023/08/12 07:06:30;;;;;;;;;;;;;;;20.53;60.32;99722.16;10366446;28;878;-68
2023/08/12 07:11:26;;;;;;;;;;;;;;;20.52;60.58;99704.56;10366365;28;1906;-68
2023/08/12 07:16:21;;;;;;;;;;;;;;;20.51;60.59;99694.06;10366469;28;868;-68
2023/08/12 07:21:17;;;;;;;;;;;;;;;20.52;60.55;99680.75;10368282;28;937;-68
2023/08/12 07:26:13;;;;;;;;;;;;;;;20.53;60.45;99666.56;10374290;28;843;-68
2023/08/12 07:31:09;;;;;;;;;;;;;;;20.53;60.38;99648.03;10374565;28;1961;-68
2023/08/12 07:36:05;;;;;;;;;;;;;;;20.55;60.37;99647.97;10374273;28;770;-68
2023/08/12 07:41:01;;;;;;;;;;;;;;;20.54;60.29;99657.72;10373403;28;1188;-68
2023/08/12 07:45:57;;;;;;;;;;;;;;;20.53;60.39;99631.28;10374049;28;786;-69
2023/08/12 07:50:53;;;;;;;;;;;;;;;20.53;60.44;99636.59;10373806;28;1969;-68
2023/08/12 07:55:48;;;;;;;;;;;;;;;20.53;60.55;99636.59;10373691;28;826;-69
2023/08/12 08:00:44;;;;;;;;;;;;;;;20.53;60.72;99661.25;10373487;28;886;-68
2023/08/12 08:05:41;;;;;;;;;;;;;;;20.53;60.85;99669.22;10373126;28;918;-69
2023/08/12 08:10:37;;;;;;;;;;;;;;;20.56;60.64;99690.25;10374254;28;1961;-69
2023/08/12 08:15:33;;;;;;;;;;;;;;;20.62;60.52;99677.59;10372806;28;960;-69
2023/08/12 08:20:29;;;;;;;;;;;;;;;20.62;60.47;99672.31;10372825;28;846;-69
2023/08/12 08:25:25;;;;;;;;;;;;;;;20.61;60.52;99666.16;10373064;28;851;-69
2023/08/12 08:30:22;;;;;;;;;;;;;;;20.64;60.73;99654.53;10372340;28;1969;-68
2023/08/12 08:35:18;;;;;;;;;;;;;;;20.67;60.85;99639.34;10371602;28;843;-69
2023/08/12 08:40:14;;;;;;;;;;;;;;;20.68;60.91;99630.44;10371666;28;1106;-68
2023/08/12 08:45:10;;;;;;;;;;;;;;;20.70;60.75;99636.53;10372594;28;772;-69
2023/08/12 08:50:06;;;;;;;;;;;;;;;20.70;60.92;99638.31;10371407;28;1921;-69
2023/08/12 08:55:02;;;;;;;;;;;;;;;20.71;60.88;99643.50;10371383;28;922;-69
2023/08/12 08:59:58;;;;;;;;;;;;;;;20.72;60.87;99647.00;10371884;28;886;-69
2023/08/12 09:04:53;;;;;;;;;;;;;;;20.70;60.95;99646.28;10370238;28;787;-68
2023/08/12 09:09:49;;;;;;;;;;;;;;;20.71;60.82;99650.63;10370112;28;1963;-69
2023/08/12 09:14:45;;;;;;;;;;;;;;;20.73;60.92;99654.88;10370560;28;934;-70
2023/08/12 09:19:41;;;;;;;;;;;;;;;20.75;60.79;99657.44;10370353;28;877;-69
2023/08/12 09:24:37;;;;;;;;;;;;;;;20.76;60.85;99657.34;10369658;28;886;-70
2023/08/12 09:29:33;;;;;;;;;;;;;;;20.75;60.85;99657.44;10369893;28;1961;-69
2023/08/12 09:34:29;;;;;;;;;;;;;;;20.73;60.94;99664.63;10369967;28;929;-69
2023/08/12 09:39:25;;;;;;;;;;;;;;;20.72;61.00;99663.78;10369421;28;1326;-75
2023/08/12 09:44:20;;;;;;;;;;;;;;;20.76;60.96;99665.31;10368419;28;884;-72
2023/08/12 09:49:16;;;;;;;;;;;;;;;20.76;60.69;99664.44;10369779;28;1917;-72
2023/08/12 09:54:12;;;;;;;;;;;;;;;20.77;60.80;99669.63;10368980;28;926;-72
2023/08/12 09:59:08;;;;;;;;;;;;;;;20.78;60.56;99674.03;10369470;28;781;-74
2023/08/12 10:04:04;;;;;;;;;;;;;;;20.83;60.33;99664.94;10369113;28;843;-74
2023/08/12 10:09:00;;;;;;;;;;;;;;;20.86;60.40;99675.38;10367801;28;1889;-75
2023/08/12 10:13:56;;;;;;;;;;;;;;;20.83;60.29;99671.13;10367684;28;866;-74
2023/08/12 10:18:51;;;;;;;;;;;;;;;20.86;60.52;99676.22;10369307;28;914;-74
2023/08/12 10:23:47;;;;;;;;;;;;;;;20.89;60.24;99667.25;10367576;28;1080;-75
2023/08/12 10:28:43;;;;;;;;;;;;;;;20.88;60.18;99663.75;10367656;28;1956;-74
2023/08/12 10:33:39;;;;;;;;;;;;;;;20.91;60.16;99670.69;10368492;28;890;-74
2023/08/12 10:38:35;;;;;;;;;;;;;;;20.89;60.25;99664.59;10366690;28;1276;-74
2023/08/12 10:43:31;;;;;;;;;;;;;;;20.89;60.19;99669.91;10367284;28;925;-75
2023/08/12 10:48:27;;;;;;;;;;;;;;;20.86;60.25;99676.22;10366559;28;1969;-74
2023/08/12 10:53:24;;;;;;;;;;;;;;;20.86;60.32;99670.94;10366907;28;776;-75
2023/08/12 10:58:20;;;;;;;;;;;;;;;20.87;60.09;99663.84;10366435;28;893;-74
2023/08/12 11:03:16;;;;;;;;;;;;;;;20.83;60.10;99659.63;10366686;28;858;-74
2023/08/12 11:08:12;;;;;;;;;;;;;;;20.84;60.15;99667.50;10366358;28;1898;-75
2023/08/12 11:13:08;;;;;;;;;;;;;;;20.86;60.12;99646.25;10367655;28;917;-74
2023/08/12 11:18:04;;;;;;;;;;;;;;;20.88;60.13;99644.34;10366311;28;886;-74
2023/08/12 11:23:00;;;;;;;;;;;;;;;20.87;60.06;99632.88;10366130;28;969;-74
2023/08/12 11:27:56;;;;;;;;;;;;;;;20.95;59.98;99628.00;10366044;28;1959;-75
2023/08/12 11:32:52;;;;;;;;;;;;;;;20.94;60.04;99617.50;10366312;28;922;-75
2023/08/12 11:37:48;;;;;;;;;;;;;;;20.93;60.08;99618.44;10366151;28;989;-75
2023/08/12 11:42:44;;;;;;;;;;;;;;;20.93;60.08;99614.00;10364930;28;1263;-75
2023/08/12 11:47:40;;;;;;;;;;;;;;;20.90;60.17;99610.66;10365989;28;1921;-74
2023/08/12 11:52:36;;;;;;;;;;;;;;;20.93;59.88;99608.72;10366235;28;846;-74
2023/08/12 11:57:34;;;;;;;;;;;;;;;20.94;60.02;99598.97;10365516;28;858;-74
2023/08/12 12:02:30;;;;;;;;;;;;;;;20.90;60.05;99608.88;10365695;28;850;-74
2023/08/12 12:07:27;;;;;;;;;;;;;;;20.87;60.09;99616.16;10365787;28;775;-74
2023/08/12 12:12:24;;;;;;;;;;;;;;;20.84;60.23;99614.53;10373321;28;1941;-74
2023/08/12 12:17:19;;;;;;;;;;;;;;;20.82;60.19;99610.25;10372421;28;972;-74
2023/08/12 12:22:15;;;;;;;;;;;;;;;20.82;60.03;99605.81;10372131;28;913;-74
2023/08/12 12:27:11;;;;;;;;;;;;;;;20.84;60.15;99614.53;10373000;28;889;-73
2023/08/12 12:32:07;;;;;;;;;;;;;;;20.82;59.92;99608.47;10371865;28;1944;-72
2023/08/12 12:37:03;;;;;;;;;;;;;;;20.83;60.03;99620.78;10372511;28;981;-72
2023/08/12 12:41:59;;;;;;;;;;;;;;;20.81;60.17;99619.16;10371230;28;1490;-72
2023/08/12 12:46:55;;;;;;;;;;;;;;;20.81;60.17;99624.47;10370041;28;1097;-72
2023/08/12 12:51:51;;;;;;;;;;;;;;;20.81;60.28;99622.66;10371182;28;1896;-72
2023/08/12 12:56:47;;;;;;;;;;;;;;;20.79;60.12;99620.09;10371454;28;834;-72
2023/08/12 13:01:43;;;;;;;;;;;;;;;20.79;60.19;99648.38;10370559;28;1265;-72
2023/08/12 13:06:39;;;;;;;;;;;;;;;20.78;60.16;99651.97;10370589;28;767;-73
2023/08/12 13:11:35;;;;;;;;;;;;;;;20.78;60.21;99649.34;10370994;28;1893;-73
2023/08/12 13:16:31;;;;;;;;;;;;;;;20.78;60.27;99650.19;10370175;28;853;-73
2023/08/12 13:21:26;;;;;;;;;;;;;;;20.77;60.21;99653.75;10370792;28;858;-73
2023/08/12 13:26:22;;;;;;;;;;;;;;;20.82;60.29;99648.19;10369730;28;872;-72
2023/08/12 13:31:18;;;;;;;;;;;;;;;20.87;60.17;99632.88;10369364;28;1894;-74
2023/08/12 13:36:14;;;;;;;;;;;;;;;20.89;60.00;99619.56;10351439;28;875;-74
2023/08/12 13:41:10;;;;;;;;;;;;;;;20.95;59.96;99624.50;10369670;28;1385;-74
2023/08/12 13:46:06;;;;;;;;;;;;;;;20.95;60.09;99633.28;10368877;28;849;-74
2023/08/12 13:51:03;;;;;;;;;;;;;;;20.91;60.19;99634.44;10369164;28;1977;-74
2023/08/12 13:55:58;;;;;;;;;;;;;;;20.86;60.25;99644.44;10368509;28;897;-74
2023/08/12 14:00:54;;;;;;;;;;;;;;;20.85;60.27;99655.13;10368841;28;773;-74
2023/08/12 14:05:50;;;;;;;;;;;;;;;20.81;60.34;99683.59;10368180;28;804;-74
2023/08/12 14:10:47;;;;;;;;;;;;;;;20.82;60.30;99709.13;10368149;28;1901;-74
2023/08/12 14:15:43;;;;;;;;;;;;;;;20.82;60.42;99695.88;10368436;28;780;-73
2023/08/12 14:20:39;;;;;;;;;;;;;;;20.85;60.31;99694.84;10348648;28;1124;-75
2023/08/12 14:25:35;;;;;;;;;;;;;;;20.87;60.17;99695.63;10326416;28;856;-73
2023/08/12 14:30:30;;;;;;;;;;;;;;;20.86;60.22;99697.44;10325835;28;1897;-73
2023/08/12 14:35:26;;;;;;;;;;;;;;;20.86;60.29;99685.97;10326231;28;769;-73
2023/08/12 14:40:22;;;;;;;;;;;;;;;20.88;60.31;99689.38;10344800;28;1467;-73
2023/08/12 14:45:18;;;;;;;;;;;;;;;20.89;60.21;99689.31;10367223;28;993;-73
2023/08/12 14:50:14;;;;;;;;;;;;;;;20.88;60.37;99686.72;10367878;28;1934;-74
2023/08/12 14:55:10;;;;;;;;;;;;;;;20.90;60.33;99676.91;10367536;28;790;-74
2023/08/12 15:00:06;;;;;;;;;;;;;;;20.98;59.90;99666.72;10366896;28;856;-74
2023/08/12 15:05:02;;;;;;;;;;;;;;;20.96;60.17;99665.97;10367136;28;1748;-74
2023/08/12 15:09:59;;;;;;;;;;;;;;;20.98;60.11;99674.66;10366178;28;1893;-74
2023/08/12 15:14:54;;;;;;;;;;;;;;;21.00;60.27;99681.56;10366035;28;846;-73
2023/08/12 15:19:50;;;;;;;;;;;;;;;21.16;59.76;99680.69;10366585;28;890;-74
2023/08/12 15:24:46;;;;;;;;;;;;;;;21.48;59.04;99675.31;10366599;28;1039;-74
2023/08/12 15:29:42;;;;;;;;;;;;;;;21.37;59.33;99690.03;10365745;28;1914;-74
2023/08/12 15:34:38;;;;;;;;;;;;;;;21.61;58.94;99690.44;10366981;28;795;-74
2023/08/12 15:39:34;;;;;;;;;;;;;;;21.43;59.47;99697.66;10365580;28;1332;-70
2023/08/12 15:44:30;;;;;;;;;;;;;;;21.20;60.35;99690.19;10369773;28;950;-70
2023/08/12 15:49:26;;;;;;;;;;;;;;;21.13;60.97;99684.38;10374258;28;1922;-70
2023/08/12 15:54:21;;;;;;;;;;;;;;;21.07;61.27;99686.53;10373459;28;962;-70
2023/08/12 15:59:17;;;;;;;;;;;;;;;21.04;61.14;99682.28;10373263;28;894;-70
2023/08/12 16:04:13;;;;;;;;;;;;;;;21.01;61.29;99685.94;10373178;28;789;-70
2023/08/12 16:09:09;;;;;;;;;;;;;;;21.02;61.27;99690.31;10373287;28;1890;-70
2023/08/12 16:14:05;;;;;;;;;;;;;;;21.04;61.24;99689.34;10373321;28;843;-70
2023/08/12 16:19:02;;;;;;;;;;;;;;;21.02;61.36;99685.00;10373119;28;904;-70
2023/08/12 16:23:57;;;;;;;;;;;;;;;21.00;61.25;99683.38;10372395;28;799;-69
2023/08/12 16:28:53;;;;;;;;;;;;;;;21.01;61.46;99690.38;10373044;28;1951;-69
2023/08/12 16:33:49;;;;;;;;;;;;;;;21.01;61.50;99693.03;10371722;28;1088;-71
2023/08/12 16:38:45;;;;;;;;;;;;;;;21.01;61.69;99699.19;10371544;28;1621;-69
2023/08/12 16:43:41;;;;;;;;;;;;;;;21.00;61.53;99701.94;10371794;28;792;-70
2023/08/12 16:48:37;;;;;;;;;;;;;;;20.98;61.67;99701.16;10371674;28;1910;-70
2023/08/12 16:53:33;;;;;;;;;;;;;;;20.97;61.68;99710.91;10371072;28;871;-70
2023/08/12 16:58:29;;;;;;;;;;;;;;;20.97;61.80;99710.06;10370793;28;1175;-70
2023/08/12 17:03:25;;;;;;;;;;;;;;;20.97;61.82;99704.75;10370587;28;907;-70
2023/08/12 17:08:21;;;;;;;;;;;;;;;20.95;61.79;99699.53;10370807;28;1967;-70
2023/08/12 17:13:18;;;;;;;;;;;;;;;20.95;61.81;99710.13;10370789;28;934;-70
2023/08/12 17:18:14;;;;;;;;;;;;;;;20.95;61.98;99718.09;10370544;28;906;-70
2023/08/12 17:23:10;;;;;;;;;;;;;;;20.95;62.00;99727.84;10371045;28;866;-70
2023/08/12 17:28:06;;;;;;;;;;;;;;;20.95;61.85;99727.84;10370123;28;1902;-70
2023/08/12 17:33:02;;;;;;;;;;;;;;;20.94;61.92;99726.13;10369994;28;854;-70
2023/08/12 17:37:58;;;;;;;;;;;;;;;20.93;62.03;99735.88;10370308;28;784;-71
2023/08/12 17:42:54;;;;;;;;;;;;;;;20.94;62.10;99750.00;10329011;28;1032;-70
2023/08/12 17:47:51;;;;;;;;;;;;;;;20.92;62.12;99750.06;10328352;28;1906;-70
2023/08/12 17:52:47;;;;;;;;;;;;;;;20.90;62.12;99751.94;10328603;28;855;-70
2023/08/12 17:57:43;;;;;;;;;;;;;;;20.89;62.33;99760.84;10327692;28;938;-70
2023/08/12 18:02:39;;;;;;;;;;;;;;;20.89;62.15;99762.63;10328104;28;812;-70
2023/08/12 18:07:34;;;;;;;;;;;;;;;20.90;62.13;99772.28;10326477;28;873;-70
2023/08/12 18:12:31;;;;;;;;;;;;;;;20.88;62.21;99772.38;10327162;28;1893;-70
2023/08/12 18:17:27;;;;;;;;;;;;;;;20.87;62.32;99772.47;10327209;28;866;-70
2023/08/12 18:22:23;;;;;;;;;;;;;;;20.85;62.26;99769.88;10326735;28;982;-69
2023/08/12 18:27:18;;;;;;;;;;;;;;;20.84;62.35;99773.47;10326536;28;933;-68
2023/08/12 18:32:14;;;;;;;;;;;;;;;20.85;62.25;99788.41;10326371;28;1910;-68
2023/08/12 18:37:10;;;;;;;;;;;;;;;20.85;62.34;99784.94;10326224;28;808;-68
2023/08/12 18:42:06;;;;;;;;;;;;;;;20.85;62.44;99795.53;10360049;28;1522;-68
2023/08/12 18:47:02;;;;;;;;;;;;;;;20.82;62.46;99801.00;10367191;28;881;-68
2023/08/12 18:51:58;;;;;;;;;;;;;;;20.83;62.46;99810.63;10366406;28;1910;-70
2023/08/12 18:56:54;;;;;;;;;;;;;;;20.81;62.63;99810.75;10367506;28;948;-70
2023/08/12 19:01:50;;;;;;;;;;;;;;;20.79;62.64;99805.50;10367336;28;822;-70
2023/08/12 19:06:46;;;;;;;;;;;;;;;20.79;62.77;99812.63;10366673;28;856;-70
2023/08/12 19:11:42;;;;;;;;;;;;;;;20.79;62.96;99823.22;10366638;28;1952;-71
2023/08/12 19:16:37;;;;;;;;;;;;;;;20.78;62.88;99826.81;10366176;28;827;-70
2023/08/12 19:21:33;;;;;;;;;;;;;;;20.76;62.79;99829.53;10366285;28;783;-70
2023/08/12 19:26:29;;;;;;;;;;;;;;;20.75;62.81;99833.13;10366124;28;873;-70
2023/08/12 19:31:25;;;;;;;;;;;;;;;20.76;62.81;99842.78;10366039;28;1898;-70
2023/08/12 19:36:21;;;;;;;;;;;;;;;20.74;62.90;99839.34;10366578;28;795;-70
2023/08/12 19:41:17;;;;;;;;;;;;;;;20.73;62.84;99837.66;10365369;28;1373;-70
2023/08/12 19:46:13;;;;;;;;;;;;;;;20.73;62.82;99850.91;10365847;28;807;-70
2023/08/12 19:51:09;;;;;;;;;;;;;;;20.72;62.82;99849.19;10364958;28;1910;-71
2023/08/12 19:56:04;;;;;;;;;;;;;;;20.72;62.93;99856.25;10366503;28;792;-70
2023/08/12 20:01:00;;;;;;;;;;;;;;;20.70;62.86;99853.72;10365476;28;827;-70
2023/08/12 20:05:56;;;;;;;;;;;;;;;20.69;62.80;99849.34;10365655;28;803;-70
2023/08/12 20:10:53;;;;;;;;;;;;;;;20.70;62.91;99853.72;10365165;28;1890;-71
2023/08/12 20:15:51;;;;;;;;;;;;;;;20.70;62.80;99855.50;10365283;28;864;-70
2023/08/12 20:20:48;;;;;;;;;;;;;;;20.68;62.80;99850.28;10365071;28;921;-71
2023/08/12 20:25:44;;;;;;;;;;;;;;;20.68;62.89;99855.59;10364781;28;853;-71
2023/08/12 20:30:40;;;;;;;;;;;;;;;20.68;62.89;99854.72;10368840;28;1894;-71
2023/08/12 20:35:36;;;;;;;;;;;;;;;20.66;62.70;99854.81;10372352;28;846;-70
2023/08/12 20:40:32;;;;;;;;;;;;;;;20.66;62.86;99854.81;10372367;28;1147;-70
2023/08/12 20:45:28;;;;;;;;;;;;;;;20.66;62.79;99859.25;10372593;28;865;-70
2023/08/12 20:50:24;;;;;;;;;;;;;;;20.66;62.81;99859.25;10371060;28;1913;-70
2023/08/12 20:55:19;;;;;;;;;;;;;;;20.64;62.82;99851.38;10370878;28;1482;-71
2023/08/12 21:00:15;;;;;;;;;;;;;;;20.64;62.68;99855.81;10370821;28;913;-70
2023/08/12 21:05:11;;;;;;;;;;;;;;;20.63;62.73;99854.97;10371168;28;776;-71
2023/08/12 21:10:07;;;;;;;;;;;;;;;20.63;62.82;99862.91;10371492;28;2313;-70
2023/08/12 21:15:03;;;;;;;;;;;;;;;20.62;62.79;99858.56;10371388;28;874;-71
2023/08/12 21:19:59;;;;;;;;;;;;;;;20.62;62.75;99863.00;10370570;28;830;-71
2023/08/12 21:24:55;;;;;;;;;;;;;;;20.61;62.64;99856.84;10371231;28;884;-71
2023/08/12 21:29:51;;;;;;;;;;;;;;;20.61;62.77;99859.50;10370161;28;1894;-71
2023/08/12 21:34:46;;;;;;;;;;;;;;;20.61;62.74;99858.63;10369997;28;931;-70
2023/08/12 21:39:42;;;;;;;;;;;;;;;20.60;62.66;99859.59;10370004;28;1156;-70
2023/08/12 21:44:38;;;;;;;;;;;;;;;20.60;62.60;99857.78;10368961;28;1200;-71
2023/08/12 21:49:34;;;;;;;;;;;;;;;20.60;62.67;99855.13;10369330;28;1914;-71
2023/08/12 21:54:30;;;;;;;;;;;;;;;20.59;62.71;99853.41;10369206;28;808;-71
2023/08/12 21:59:26;;;;;;;;;;;;;;;20.58;62.71;99849.91;10369567;28;811;-70
2023/08/12 22:04:22;;;;;;;;;;;;;;;20.57;62.79;99856.16;10368210;28;917;-71
2023/08/12 22:09:18;;;;;;;;;;;;;;;20.57;62.66;99850.00;10368551;28;1956;-71
2023/08/12 22:14:14;;;;;;;;;;;;;;;20.57;62.70;99850.88;10369650;28;850;-70
2023/08/12 22:19:09;;;;;;;;;;;;;;;20.57;62.69;99844.72;10368296;28;912;-71
2023/08/12 22:24:05;;;;;;;;;;;;;;;20.57;62.76;99836.78;10368753;28;916;-71
2023/08/12 22:29:01;;;;;;;;;;;;;;;20.56;62.63;99843.00;10368347;28;1914;-71
2023/08/12 22:33:58;;;;;;;;;;;;;;;20.55;62.82;99844.78;10367769;28;771;-71
2023/08/12 22:38:54;;;;;;;;;;;;;;;20.55;62.76;99843.94;10368134;28;1254;-71
2023/08/12 22:43:49;;;;;;;;;;;;;;;20.53;62.71;99845.78;10368043;28;954;-71
2023/08/12 22:48:45;;;;;;;;;;;;;;;20.53;62.60;99845.78;10366911;28;1980;-71
2023/08/12 22:53:41;;;;;;;;;;;;;;;20.53;62.59;99845.78;10366624;28;941;-71
2023/08/12 22:58:37;;;;;;;;;;;;;;;20.53;62.79;99843.97;10366904;28;880;-71
2023/08/12 23:03:33;;;;;;;;;;;;;;;20.52;62.68;99857.31;10366941;28;775;-71
2023/08/12 23:08:29;;;;;;;;;;;;;;;20.51;62.64;99847.63;10366693;28;1960;-70
2023/08/12 23:13:25;;;;;;;;;;;;;;;20.51;62.71;99847.63;10367070;28;872;-71
2023/08/12 23:18:21;;;;;;;;;;;;;;;20.50;62.62;99844.13;10366588;28;862;-71
2023/08/12 23:23:17;;;;;;;;;;;;;;;20.49;62.74;99842.44;10366322;28;803;-70
2023/08/12 23:28:13;;;;;;;;;;;;;;;20.49;62.73;99852.19;10366672;28;1964;-71
2023/08/12 23:33:09;;;;;;;;;;;;;;;20.49;62.70;99838.94;10366838;28;933;-71
2023/08/12 23:38:04;;;;;;;;;;;;;;;20.48;62.75;99848.66;10365694;28;1422;-71
2023/08/12 23:43:00;;;;;;;;;;;;;;;20.47;62.57;99846.09;10365264;28;1097;-71
2023/08/12 23:47:56;;;;;;;;;;;;;;;20.47;62.57;99851.41;10365760;28;1964;-71
2023/08/12 23:52:52;;;;;;;;;;;;;;;20.47;62.83;99859.34;10365714;28;858;-71
2023/08/12 23:57:48;;;;;;;;;;;;;;;20.47;62.72;99854.06;10365570;28;1662;-71
